This is the latest recevied weather packets stored in our database for station/object EC1DIR-13. If no packets are shown the sender has not sent any weather packets the latest 10 day(s).
| Time | Temp. | Humidity | Pressure | Rain* | Wind** | Luminosity | Snow |
|---|---|---|---|---|---|---|---|
| 1777287606 | 23.33° C | 13% | 1016.7 hPa | 0 mm | - | 854 W/m² | - |
| 1777282246 | 22.22° C | 13% | 1017.4 hPa | 0 mm | - | 585 W/m² | - |
| 1777279537 | 20.56° C | 18% | 1017.6 hPa | 0 mm | - | 601 W/m² | - |
| 1777277729 | 20.56° C | 17% | 1017.9 hPa | 0 mm | - | 471 W/m² | - |
| 1777272312 | 16.11° C | 40% | 1017.9 hPa | 0 mm | - | 211 W/m² | - |
| 1777269656 | 12.22° C | 47% | 1017.5 hPa | 0 mm | - | 33 W/m² | - |
| 1777263342 | 13.33° C | 48% | 1017.2 hPa | 0 mm | - | 0 W/m² | - |
| 1777259736 | 14.44° C | 45% | 1017.6 hPa | 0 mm | - | 0 W/m² | - |
| 1777258830 | 14.44° C | 43% | 1017.8 hPa | 0 mm | - | 0 W/m² | - |
| 1777257026 | 15° C | 44% | 1017.8 hPa | 0 mm | - | 0 W/m² | - |
| 1777256124 | 15.56° C | 43% | 1017.9 hPa | 0 mm | - | 0 W/m² | - |
| 1777252513 | 17.22° C | 37% | 1018.2 hPa | 0 mm | - | 0 W/m² | - |
| 1777251610 | 17.78° C | 37% | 1018.2 hPa | 0 mm | - | 0 W/m² | - |
| 1777250711 | 17.78° C | 37% | 1018.4 hPa | 0 mm | - | 0 W/m² | - |
| 1777248907 | 17.78° C | 37% | 1018.6 hPa | 0 mm | - | 0 W/m² | - |
| 1777244460 | 18.89° C | 33% | 1018.7 hPa | 0 mm | - | 0 W/m² | - |
| 1777237234 | 19.44° C | 29% | 1018.5 hPa | 0 mm | - | 0 W/m² | - |
| 1777235425 | 19.44° C | 30% | 1018.1 hPa | 0 mm | - | 0 W/m² | - |
| 1777225537 | 23.89° C | 14% | 1016.8 hPa | 0 mm | - | 44 W/m² | - |
| 1777221933 | 23.89° C | 11% | 1016.7 hPa | 0 mm | - | 411 W/m² | - |
| 1777219207 | 25.56° C | 6% | 1016.7 hPa | 0 mm | - | 172 W/m² | - |
| 1777216554 | 25° C | 6% | 1016.9 hPa | 0 mm | - | 698 W/m² | - |
| 1777215652 | 25° C | 8% | 1017 hPa | 0 mm | - | 715 W/m² | - |
| 1777213843 | 25° C | 8% | 1017.4 hPa | 0 mm | - | 803 W/m² | - |
| 1777203959 | 23.33° C | 5% | 1019 hPa | 0 mm | - | 914 W/m² | - |
* Rain latest hour (hover to see other rain measurements)
** Current wind speed in m/s (hover to see current wind gust speed)